Terminal Aerodrome Forecast
Issued by NWS

Home | Current Version | Previous Version | Text Only | Print | Product List | Glossary On
Versions: 1 2 3 4 5 6 7 8 9 10 11 12 13
000
FTUS46 KPQR 201131
TAFONP
TAF
KONP 201131Z 2012/2112 19026G35KT 2SM RA OVC004
     FM201500 20020G30KT 3SM -RA OVC008
     FM201800 22010KT P6SM -SHRA SCT008 BKN015 OVC025
     FM202200 VRB04KT P6SM SCT015 OVC035
     FM210600 11010KT 4SM -RA BR OVC015=

USA.gov is the U.S. government's official web portal to all federal, state and local government web resources and services.